createdAt,value
2019-03-30T00:01:22.721Z,35.60
2019-03-30T00:04:15.917Z,35.80
2019-03-30T00:07:11.435Z,35.90
2019-03-30T00:10:04.134Z,36.20
2019-03-30T00:12:58.137Z,36.30
2019-03-30T00:15:51.377Z,36.50
2019-03-30T00:18:44.186Z,36.80
2019-03-30T00:21:36.820Z,37.00
2019-03-30T00:24:29.514Z,37.00
2019-03-30T00:27:22.447Z,37.20
2019-03-30T00:30:15.198Z,37.40
2019-03-30T00:33:08.198Z,38.00
2019-03-30T00:36:01.329Z,38.10
2019-03-30T00:38:55.017Z,38.20
2019-03-30T00:41:47.702Z,38.10
2019-03-30T00:44:40.649Z,38.40
2019-03-30T00:47:33.590Z,38.30
2019-03-30T00:50:26.387Z,38.60
2019-03-30T00:53:19.409Z,38.90
2019-03-30T00:56:12.576Z,39.20
2019-03-30T00:59:05.391Z,39.40
2019-03-30T01:01:58.363Z,39.30
2019-03-30T01:04:51.183Z,39.40
2019-03-30T01:07:44.120Z,39.60
2019-03-30T01:10:37.084Z,39.60
2019-03-30T01:13:30.391Z,39.70
2019-03-30T01:16:23.415Z,39.80
2019-03-30T01:19:16.290Z,40.80
2019-03-30T01:22:08.850Z,41.00
2019-03-30T01:25:01.699Z,40.90
2019-03-30T01:27:54.662Z,41.60
2019-03-30T01:30:47.581Z,41.30
2019-03-30T01:33:40.209Z,41.00
2019-03-30T01:36:33.043Z,41.30
2019-03-30T01:39:26.405Z,41.50
2019-03-30T01:42:19.437Z,42.30
2019-03-30T01:45:12.436Z,42.60
2019-03-30T01:48:07.259Z,42.60
2019-03-30T01:51:02.476Z,42.20
2019-03-30T01:53:55.667Z,42.60
2019-03-30T01:56:48.490Z,42.30
2019-03-30T01:59:41.947Z,41.90
2019-03-30T02:02:35.231Z,42.30
2019-03-30T02:05:28.525Z,42.00
2019-03-30T02:08:21.528Z,42.20
2019-03-30T02:11:14.563Z,42.30
2019-03-30T02:14:07.556Z,42.00
2019-03-30T02:17:01.015Z,41.90
2019-03-30T02:19:54.159Z,45.40
2019-03-30T02:22:47.286Z,43.60
2019-03-30T02:25:41.194Z,43.90
2019-03-30T02:28:37.025Z,44.10
2019-03-30T02:31:30.046Z,44.70
2019-03-30T02:34:23.980Z,44.50
2019-03-30T02:37:16.972Z,44.40
2019-03-30T02:40:10.274Z,44.50
2019-03-30T02:43:03.289Z,44.50
2019-03-30T02:45:56.371Z,44.70
2019-03-30T02:48:49.344Z,44.80
2019-03-30T02:51:42.609Z,45.00
2019-03-30T02:54:35.568Z,45.30
2019-03-30T02:57:32.108Z,45.30
2019-03-30T03:00:24.977Z,45.10
2019-03-30T03:03:18.512Z,45.20
2019-03-30T03:06:11.843Z,44.80
2019-03-30T03:09:08.839Z,44.80
2019-03-30T03:12:01.479Z,44.60
2019-03-30T03:15:01.627Z,44.50
2019-03-30T03:18:10.643Z,44.70
2019-03-30T03:21:26.534Z,44.20
2019-03-30T03:24:21.661Z,44.00
2019-03-30T03:27:18.620Z,43.70
2019-03-30T03:30:17.708Z,43.70
2019-03-30T03:33:11.441Z,43.50
2019-03-30T03:36:04.769Z,43.50
2019-03-30T03:39:05.382Z,43.30
2019-03-30T03:42:02.127Z,43.10
2019-03-30T03:44:56.774Z,43.30
2019-03-30T03:47:50.156Z,43.30
2019-03-30T03:50:47.109Z,43.10
2019-03-30T03:53:40.623Z,43.30
2019-03-30T03:56:34.912Z,42.80
2019-03-30T03:59:32.182Z,43.30
2019-03-30T04:02:26.550Z,43.40
2019-03-30T04:05:25.738Z,43.30
2019-03-30T04:08:20.529Z,43.00
2019-03-30T04:14:46.348Z,42.30
2019-03-30T04:18:06.589Z,41.80
2019-03-30T04:20:58.688Z,41.40
2019-03-30T04:23:56.304Z,41.30
2019-03-30T04:26:53.070Z,40.80
2019-03-30T04:29:46.300Z,41.00
2019-03-30T04:32:39.223Z,40.00
2019-03-30T04:35:35.354Z,41.30
2019-03-30T04:38:29.996Z,41.10
2019-03-30T04:41:31.616Z,40.80
2019-03-30T04:44:24.978Z,40.30
2019-03-30T04:47:18.447Z,40.20
2019-03-30T04:50:11.497Z,39.80
2019-03-30T04:53:06.294Z,39.50
2019-03-30T04:55:59.323Z,39.10
2019-03-30T05:02:43.716Z,38.80
2019-03-30T05:05:42.864Z,38.90
2019-03-30T05:08:34.996Z,38.50
2019-03-30T05:11:28.494Z,38.30
2019-03-30T05:14:22.143Z,38.60
2019-03-30T05:20:57.114Z,40.90
2019-03-30T05:23:53.926Z,41.00
2019-03-30T05:26:48.958Z,41.30
2019-03-30T05:29:47.527Z,41.60
2019-03-30T05:32:46.797Z,41.70
2019-03-30T05:35:39.897Z,42.00
2019-03-30T05:38:41.158Z,42.00
2019-03-30T05:41:38.478Z,42.00
2019-03-30T05:44:44.318Z,42.00
2019-03-30T05:47:56.226Z,41.90
2019-03-30T05:50:51.893Z,41.80
2019-03-30T05:54:08.513Z,42.10
2019-03-30T05:57:09.236Z,42.10
2019-03-30T06:00:04.117Z,41.80
2019-03-30T06:03:01.598Z,41.50
2019-03-30T06:05:56.402Z,41.50
2019-03-30T06:08:54.360Z,41.50
2019-03-30T06:12:09.241Z,41.50
2019-03-30T06:15:03.297Z,41.30
2019-03-30T06:18:11.387Z,40.90
2019-03-30T06:21:15.426Z,40.80
2019-03-30T06:24:14.855Z,40.40
2019-03-30T06:27:22.066Z,40.40
2019-03-30T06:30:20.228Z,40.30
2019-03-30T06:33:13.878Z,40.60
2019-03-30T06:36:07.014Z,40.60
2019-03-30T06:39:06.042Z,40.40
2019-03-30T06:42:06.485Z,40.50
2019-03-30T06:54:14.891Z,40.00
2019-03-30T06:57:14.275Z,39.90
2019-03-30T07:00:38.451Z,39.80
2019-03-30T07:16:44.420Z,38.70
2019-03-30T07:23:15.076Z,38.60
2019-03-30T07:26:17.863Z,38.40
2019-03-30T07:29:12.724Z,38.20
2019-03-30T07:32:06.055Z,38.10
2019-03-30T07:35:24.027Z,38.20
2019-03-30T07:38:20.571Z,38.10
2019-03-30T07:41:39.628Z,38.00
2019-03-30T07:44:47.366Z,37.90
2019-03-30T07:47:45.784Z,38.00
2019-03-30T07:50:54.907Z,38.00
2019-03-30T07:53:48.826Z,38.00
2019-03-30T07:57:04.293Z,38.00
2019-03-30T08:00:06.142Z,37.80
2019-03-30T08:10:10.146Z,37.30
2019-03-30T08:13:07.097Z,37.10
2019-03-30T08:16:02.123Z,37.30
2019-03-30T08:18:57.836Z,37.40
2019-03-30T08:21:54.894Z,37.50
2019-03-30T08:24:49.134Z,37.30
2019-03-30T08:27:42.873Z,37.40
2019-03-30T08:30:36.139Z,36.40
2019-03-30T08:33:35.917Z,36.30
2019-03-30T08:36:28.878Z,36.10
2019-03-30T08:39:21.838Z,35.80
2019-03-30T08:42:22.351Z,35.80
2019-03-30T08:45:15.860Z,35.50
2019-03-30T08:48:09.979Z,35.10
2019-03-30T08:51:04.459Z,35.00
2019-03-30T08:54:03.143Z,34.80
2019-03-30T08:56:56.448Z,34.90
2019-03-30T08:59:49.612Z,34.90
2019-03-30T09:02:46.355Z,35.60
2019-03-30T09:05:39.571Z,34.90
2019-03-30T09:08:36.539Z,34.90
2019-03-30T09:11:35.161Z,34.80
2019-03-30T09:14:33.073Z,35.20
2019-03-30T09:17:28.505Z,35.40
2019-03-30T09:20:31.132Z,35.30
2019-03-30T09:23:26.429Z,35.50
2019-03-30T09:26:21.692Z,35.70
2019-03-30T09:29:15.871Z,36.20
2019-03-30T09:32:16.989Z,35.70
2019-03-30T09:35:16.173Z,36.40
2019-03-30T09:38:14.808Z,36.00
2019-03-30T09:41:12.421Z,36.10
2019-03-30T09:44:06.331Z,36.30
2019-03-30T09:47:04.169Z,36.10
2019-03-30T09:50:03.025Z,35.80
2019-03-30T09:53:06.870Z,35.40
2019-03-30T09:56:02.237Z,35.30
2019-03-30T09:58:55.305Z,35.30
2019-03-30T10:01:51.639Z,35.10
2019-03-30T10:04:52.371Z,35.10
2019-03-30T10:07:46.203Z,35.20
2019-03-30T10:10:45.033Z,34.80
2019-03-30T10:13:39.412Z,34.50
2019-03-30T10:16:34.430Z,34.40
2019-03-30T10:19:36.183Z,34.20
2019-03-30T10:22:29.980Z,34.00
2019-03-30T10:25:28.618Z,34.10
2019-03-30T10:28:27.065Z,34.10
2019-03-30T10:31:24.712Z,34.10
2019-03-30T10:34:25.871Z,34.00
2019-03-30T10:37:20.463Z,33.90
2019-03-30T10:40:14.898Z,34.20
2019-03-30T10:43:11.084Z,34.00
2019-03-30T10:46:09.267Z,34.00
2019-03-30T10:49:05.157Z,33.90
2019-03-30T10:52:02.109Z,34.10
2019-03-30T10:54:58.700Z,33.90
2019-03-30T10:57:51.988Z,34.10
2019-03-30T11:00:46.258Z,34.00
2019-03-30T11:03:49.432Z,34.10
2019-03-30T11:06:42.978Z,34.30
2019-03-30T11:09:43.332Z,34.50
2019-03-30T11:12:55.426Z,34.60
2019-03-30T11:15:55.376Z,34.80
2019-03-30T11:18:50.574Z,34.90
2019-03-30T11:21:48.970Z,35.20
2019-03-30T11:24:42.710Z,36.60
2019-03-30T11:27:44.667Z,37.50
2019-03-30T11:31:05.098Z,38.20
2019-03-30T11:34:01.906Z,38.10
2019-03-30T11:37:04.148Z,37.90
2019-03-30T11:39:57.311Z,37.70
2019-03-30T11:42:55.875Z,37.80
2019-03-30T11:45:58.589Z,37.70
2019-03-30T11:49:13.842Z,37.60
2019-03-30T11:52:12.535Z,37.50
2019-03-30T11:55:21.776Z,37.50
2019-03-30T11:58:07.247Z,37.40
2019-03-30T12:01:03.003Z,37.40
2019-03-30T12:04:00.986Z,37.30
2019-03-30T12:07:02.582Z,37.30
2019-03-30T12:10:01.409Z,37.20
2019-03-30T12:13:13.280Z,37.00
2019-03-30T12:16:09.622Z,37.10
2019-03-30T12:19:11.226Z,37.50
2019-03-30T12:22:15.380Z,37.30
2019-03-30T12:25:35.497Z,37.10
2019-03-30T12:28:24.332Z,36.90
2019-03-30T12:31:25.528Z,36.60
2019-03-30T12:34:22.760Z,36.60
2019-03-30T12:37:17.494Z,36.40
2019-03-30T12:40:13.837Z,36.50
2019-03-30T12:43:10.261Z,36.70
2019-03-30T12:46:15.366Z,36.80
2019-03-30T12:49:08.992Z,37.00
2019-03-30T12:52:26.359Z,37.00
2019-03-30T12:55:18.915Z,36.80
